createdAt,value
2017-01-08T00:02:17.550Z,283.5
2017-01-08T00:13:18.200Z,283.3
2017-01-08T00:24:18.723Z,283.2
2017-01-08T00:35:18.041Z,283.4
2017-01-08T00:46:17.609Z,283.3
2017-01-08T00:57:17.338Z,283.4
2017-01-08T01:08:19.276Z,283.2
2017-01-08T01:19:17.498Z,282.8
2017-01-08T01:30:18.452Z,283.7
2017-01-08T01:41:17.984Z,283.4
2017-01-08T01:52:18.161Z,283.6
2017-01-08T02:03:18.029Z,283.6
2017-01-08T02:14:17.507Z,283.1
2017-01-08T02:25:17.941Z,283.4
2017-01-08T02:36:17.370Z,283.2
2017-01-08T02:47:18.126Z,283
2017-01-08T02:58:18.096Z,283.1
2017-01-08T03:09:18.304Z,283.5
2017-01-08T03:20:17.652Z,282.6
2017-01-08T03:31:17.799Z,282.2
2017-01-08T03:42:17.782Z,282.3
2017-01-08T03:53:17.979Z,282.1
2017-01-08T04:04:17.481Z,276.4
2017-01-08T04:15:17.934Z,279
2017-01-08T04:26:17.513Z,280.6
2017-01-08T04:37:17.345Z,281.2
2017-01-08T04:48:17.923Z,281.1
2017-01-08T04:59:18.511Z,281.8
2017-01-08T05:10:18.273Z,281.5
2017-01-08T05:21:18.248Z,282.3
2017-01-08T05:32:18.120Z,282.1
2017-01-08T05:43:17.449Z,281.7
2017-01-08T05:54:17.548Z,281.3
2017-01-08T06:05:18.343Z,281.2
2017-01-08T06:16:18.749Z,281.8
2017-01-08T06:27:18.189Z,281.4
2017-01-08T06:38:17.814Z,281
2017-01-08T06:49:18.404Z,280.6
2017-01-08T07:00:18.395Z,280.2
2017-01-08T07:11:17.715Z,280.1
2017-01-08T07:22:18.157Z,280.4
2017-01-08T07:33:17.412Z,280
2017-01-08T07:44:18.143Z,280
2017-01-08T07:55:18.182Z,280.4
2017-01-08T08:06:17.842Z,280.9
2017-01-08T08:17:18.632Z,282.3
2017-01-08T08:28:17.760Z,281.9
2017-01-08T08:39:17.493Z,281.3
2017-01-08T08:50:17.836Z,282.1
2017-01-08T09:01:18.569Z,282.8
2017-01-08T09:12:18.025Z,281.8
2017-01-08T09:23:18.167Z,282.2
2017-01-08T09:34:18.256Z,281.9
2017-01-08T09:45:18.100Z,281.4
2017-01-08T09:56:17.762Z,281.8
2017-01-08T10:07:17.523Z,281.3
2017-01-08T10:18:17.793Z,282
2017-01-08T10:29:17.755Z,282
2017-01-08T10:40:18.476Z,282.1
2017-01-08T10:51:18.175Z,282.4
2017-01-08T11:02:19.384Z,282.3
2017-01-08T11:13:18.018Z,282.2
2017-01-08T11:24:18.072Z,282.5
2017-01-08T11:35:18.406Z,282.2
2017-01-08T11:46:17.868Z,282.5
2017-01-08T11:57:18.657Z,282.6
2017-01-08T12:08:18.366Z,282.5
2017-01-08T12:19:17.919Z,282.3
2017-01-08T12:30:18.021Z,282.5
2017-01-08T12:41:17.973Z,282.5
2017-01-08T12:52:18.322Z,282.6
2017-01-08T13:03:17.638Z,283.6
2017-01-08T13:09:17.998Z,282.7
2017-01-08T13:15:17.707Z,282.2
2017-01-08T13:21:17.985Z,282.5
2017-01-08T13:27:18.193Z,282.4
2017-01-08T13:33:18.095Z,282.7
2017-01-08T13:39:18.420Z,282.5
2017-01-08T13:45:17.914Z,282.2
2017-01-08T13:51:18.022Z,282.5
2017-01-08T13:57:17.651Z,282.6
2017-01-08T14:03:17.775Z,282
2017-01-08T14:14:17.789Z,282
2017-01-08T14:25:17.894Z,282.4
2017-01-08T14:36:18.366Z,282.3
2017-01-08T14:47:18.436Z,282.5
2017-01-08T14:58:18.203Z,282.8
2017-01-08T15:09:18.704Z,282.9
2017-01-08T15:20:17.979Z,281.8
2017-01-08T15:31:18.276Z,281.9
2017-01-08T15:42:18.781Z,282.2
2017-01-08T15:53:18.178Z,282.4
2017-01-08T16:04:18.650Z,282.2
2017-01-08T16:15:18.305Z,282.3
2017-01-08T16:26:18.318Z,282.1
2017-01-08T16:37:18.398Z,282
2017-01-08T16:48:17.763Z,282.1
2017-01-08T16:59:18.306Z,281.8
2017-01-08T17:10:17.982Z,282.8
2017-01-08T17:21:18.396Z,282
2017-01-08T17:32:18.156Z,281.4
2017-01-08T17:43:18.463Z,281.6
2017-01-08T17:54:18.221Z,282.1
2017-01-08T18:05:18.483Z,281.8
2017-01-08T18:16:18.404Z,282
2017-01-08T18:27:17.722Z,282
2017-01-08T18:38:18.282Z,281.7
2017-01-08T18:49:17.750Z,282
2017-01-08T19:00:18.330Z,282
2017-01-08T19:11:18.630Z,282.4
2017-01-08T19:22:18.396Z,281.5
2017-01-08T19:33:18.047Z,282.2
2017-01-08T19:44:17.898Z,282.2
2017-01-08T19:55:17.986Z,282
2017-01-08T20:06:18.033Z,282.3
2017-01-08T20:12:17.900Z,282.2
2017-01-08T20:18:17.773Z,281.8
2017-01-08T20:24:18.269Z,281.8
2017-01-08T20:30:18.147Z,281.6
2017-01-08T20:36:18.246Z,281.9
2017-01-08T20:42:18.070Z,282.1
2017-01-08T20:48:18.075Z,281.5
2017-01-08T20:54:17.690Z,282.1
2017-01-08T21:00:18.221Z,282
2017-01-08T21:06:17.895Z,281.8
2017-01-08T21:17:18.526Z,281.9
2017-01-08T21:28:18.036Z,281.8
2017-01-08T21:39:17.945Z,282
2017-01-08T21:50:18.418Z,282
2017-01-08T22:01:18.252Z,281.8
2017-01-08T22:12:20.020Z,281.6
2017-01-08T22:23:17.909Z,282
2017-01-08T22:34:17.789Z,281.6
2017-01-08T22:45:18.502Z,281.7
2017-01-08T22:56:18.173Z,282
2017-01-08T23:07:18.296Z,281.8
2017-01-08T23:14:17.678Z,282
2017-01-08T23:20:18.552Z,282
2017-01-08T23:26:17.842Z,281.7
2017-01-08T23:32:18.452Z,281.8
2017-01-08T23:38:18.578Z,281.8
2017-01-08T23:44:17.845Z,281.8
2017-01-08T23:50:18.543Z,281.6
2017-01-08T23:56:18.198Z,281.8
